首页
METAR-TAF:

METAR-TAF

机场 :

紐華克自由國際機場

紐華克, 新泽西州, 美国

纬度: 40-40-57N, 经度: 074-10-10W, 海拔: 5米

当前天气观测

该预报发布于22分钟前的08:51 UTC
风速8节,风向西转西北
温度 -5°C
湿度 49%
气压 1024 hPa
能見度: 16.1公里
天空无云

METAR: KEWR 130851Z 29008KT 10SM CLR M05/M14 A3024 RMK AO2 SLP239 T10501144 52015

时间: 04:13 (09:13 UTC)

预报

该预报发布于40分钟前的08:33 UTC
预报有效从13日的 09点(UTC)到 14日的 12点(UTC)
风速12节,风向西北,有时为26节阵风
能見度: 10公里
天空无云
从 13日的 1100点(UTC)
风速10节,风向西北,有时为19节阵风
能見度: 10公里
天空无云
从 13日的 2000点(UTC)
风速8节,风向北转西北
能見度: 10公里
天空无云
从 14日的 0200点(UTC)
风速4节,风向北转西北
能見度: 10公里
少量云层高于25000英尺

TAF: KEWR 130833Z 1309/1412 32012G26KT P6SM SKC FM131100 31010G19KT P6SM SKC FM132000 33008KT P6SM SKC FM140200 34004KT P6SM FEW250

超过4000个机场的气象观测和天气预报(METAR&TAF报告)。

可查询的气象台以黄色和红色小点在地图上表示。

将鼠标移到小点上方,可查看气象台名称。

然后点击查看天气观测和预报。

如需切换地图:点击带黑十字的绿色按钮放大地图;点击带横线的绿色按钮缩小地图;或者点击绿色箭头查看邻近地区的地图。


METAR-TAF: